Waccabuc, New York
Current Conditions -  °F | °C
As of 6:53 PM on Sunday 23 Nov 2014 (Local Time) from KDXR Reporting Station
Clear Clear  
Wind Chill: 40°   Ceiling: Unl
Heat Index: 40°   Visibility: 10mi
Dew Point: 26°   Wind: 0mph
Humidity: 58%   Direction: NA
Pressure: 30.13"   Gusts: NA
Location:  41.29°N, 73.59°W
Report Text: KDXR 232353Z 00000KT 10SM CLR 04/M03 A3013 RMK AO2 SLP206 T00441033 10150 20044 50004
Loading
Personal Weather Stations






























Interactive Weather Map New forecast layout! Learn more

10-Day Weather Forecast

Advertisements
Track Severe Weather on mobile